logo
Rechercher aéroport 
image banner adimage banner adimage banner ad
image banner ad

FAMNTU - Montusi Mountain Lodge

Situé à , South Africa

ICAO - , IATA -

Données fournies par Airmate  

Information générale

Coordonnées: S28°37'44" E29°1'46"
Élévation : 4337 feet MSL.
 
Voir autres Aéroports à Kwazulu-Natal

Données opérationnelles

Special qualification required
Heure actuelle UTC:
Heure actuelle locale:
Météo à : - ( 0 km )
METAR: PFTO 240652Z AUTO 31006KT 10SM SCT020 OVC042 07/04 A2977 RMK AO2 $
Voir NOTAMs / SUP AIP / TFR affectant cet aéroport [VIEW]
Fréquences de communication: [VIEW]

Pistes:

Identifiant RWYQFULongueur (ft)Largeur (ft)SurfaceLDA (ft)
02134°324866SAND
20314°324866SAND

Coordonnées de l'aéroport

Adresse: South Africa

Vue satellite de FAMNTU